sensor_id;sensor_type;location;lat;lon;timestamp;temperature;humidity
68609;SHT31;55581;46.718;7.690;2022-07-06T00:01:46;18.02;69.66
68609;SHT31;55581;46.718;7.690;2022-07-06T00:04:12;18.03;69.18
68609;SHT31;55581;46.718;7.690;2022-07-06T00:06:38;17.95;69.02
68609;SHT31;55581;46.718;7.690;2022-07-06T00:09:05;17.93;70.01
68609;SHT31;55581;46.718;7.690;2022-07-06T00:11:31;17.82;70.46
68609;SHT31;55581;46.718;7.690;2022-07-06T00:13:57;17.68;71.54
68609;SHT31;55581;46.718;7.690;2022-07-06T00:16:25;17.62;71.07
68609;SHT31;55581;46.718;7.690;2022-07-06T00:18:51;17.61;70.77
68609;SHT31;55581;46.718;7.690;2022-07-06T00:21:16;17.58;70.95
68609;SHT31;55581;46.718;7.690;2022-07-06T00:23:42;17.54;70.91
68609;SHT31;55581;46.718;7.690;2022-07-06T00:26:08;17.47;71.74
68609;SHT31;55581;46.718;7.690;2022-07-06T00:28:34;17.48;71.60
68609;SHT31;55581;46.718;7.690;2022-07-06T00:31:02;17.44;71.73
68609;SHT31;55581;46.718;7.690;2022-07-06T00:33:30;17.34;71.37
68609;SHT31;55581;46.718;7.690;2022-07-06T00:35:55;17.24;72.85
68609;SHT31;55581;46.718;7.690;2022-07-06T00:38:21;17.17;72.85
68609;SHT31;55581;46.718;7.690;2022-07-06T00:40:47;17.11;72.03
68609;SHT31;55581;46.718;7.690;2022-07-06T00:43:12;17.11;72.08
68609;SHT31;55581;46.718;7.690;2022-07-06T00:45:38;17.19;72.98
68609;SHT31;55581;46.718;7.690;2022-07-06T00:48:03;17.11;73.11
68609;SHT31;55581;46.718;7.690;2022-07-06T00:50:29;17.13;73.83
68609;SHT31;55581;46.718;7.690;2022-07-06T00:52:59;17.00;73.52
68609;SHT31;55581;46.718;7.690;2022-07-06T00:55:27;16.92;74.59
68609;SHT31;55581;46.718;7.690;2022-07-06T00:57:58;16.84;74.69
68609;SHT31;55581;46.718;7.690;2022-07-06T01:00:27;16.77;74.72
68609;SHT31;55581;46.718;7.690;2022-07-06T01:02:53;16.72;74.71
68609;SHT31;55581;46.718;7.690;2022-07-06T01:05:20;16.73;73.78
68609;SHT31;55581;46.718;7.690;2022-07-06T01:07:47;16.76;73.54
68609;SHT31;55581;46.718;7.690;2022-07-06T01:10:15;16.75;73.51
68609;SHT31;55581;46.718;7.690;2022-07-06T01:12:43;16.80;73.87
68609;SHT31;55581;46.718;7.690;2022-07-06T01:15:14;16.80;73.43
68609;SHT31;55581;46.718;7.690;2022-07-06T01:17:40;16.82;73.93
68609;SHT31;55581;46.718;7.690;2022-07-06T01:20:16;16.76;74.27
68609;SHT31;55581;46.718;7.690;2022-07-06T01:22:46;16.66;73.40
68609;SHT31;55581;46.718;7.690;2022-07-06T01:25:12;16.64;73.33
68609;SHT31;55581;46.718;7.690;2022-07-06T01:27:39;16.64;74.06
68609;SHT31;55581;46.718;7.690;2022-07-06T01:30:06;16.62;74.13
68609;SHT31;55581;46.718;7.690;2022-07-06T01:32:32;16.58;74.81
68609;SHT31;55581;46.718;7.690;2022-07-06T01:34:59;16.66;74.85
68609;SHT31;55581;46.718;7.690;2022-07-06T01:37:25;16.66;74.93
68609;SHT31;55581;46.718;7.690;2022-07-06T01:39:51;16.71;74.72
68609;SHT31;55581;46.718;7.690;2022-07-06T01:42:17;16.71;74.18
68609;SHT31;55581;46.718;7.690;2022-07-06T01:44:43;16.69;74.58
68609;SHT31;55581;46.718;7.690;2022-07-06T01:47:10;16.77;74.01
68609;SHT31;55581;46.718;7.690;2022-07-06T01:49:36;16.82;74.56
68609;SHT31;55581;46.718;7.690;2022-07-06T01:52:02;16.83;74.29
68609;SHT31;55581;46.718;7.690;2022-07-06T01:54:28;16.83;73.82
68609;SHT31;55581;46.718;7.690;2022-07-06T01:56:56;16.92;72.52
68609;SHT31;55581;46.718;7.690;2022-07-06T01:59:21;16.97;72.69
68609;SHT31;55581;46.718;7.690;2022-07-06T02:01:49;16.97;72.14
68609;SHT31;55581;46.718;7.690;2022-07-06T02:04:15;17.00;72.03
68609;SHT31;55581;46.718;7.690;2022-07-06T02:06:42;17.03;72.22
68609;SHT31;55581;46.718;7.690;2022-07-06T02:09:08;16.90;72.93
68609;SHT31;55581;46.718;7.690;2022-07-06T02:11:34;16.93;73.62
68609;SHT31;55581;46.718;7.690;2022-07-06T02:14:02;16.92;73.57
68609;SHT31;55581;46.718;7.690;2022-07-06T02:16:27;16.86;73.82
68609;SHT31;55581;46.718;7.690;2022-07-06T02:18:55;16.80;74.17
68609;SHT31;55581;46.718;7.690;2022-07-06T02:21:20;16.83;74.36
68609;SHT31;55581;46.718;7.690;2022-07-06T02:23:45;16.65;75.91
68609;SHT31;55581;46.718;7.690;2022-07-06T02:26:11;16.59;75.74
68609;SHT31;55581;46.718;7.690;2022-07-06T02:28:36;16.54;75.41
68609;SHT31;55581;46.718;7.690;2022-07-06T02:31:05;16.51;75.66
68609;SHT31;55581;46.718;7.690;2022-07-06T02:33:30;16.49;76.66
68609;SHT31;55581;46.718;7.690;2022-07-06T02:35:56;16.42;76.17
68609;SHT31;55581;46.718;7.690;2022-07-06T02:38:21;16.31;76.74
68609;SHT31;55581;46.718;7.690;2022-07-06T02:40:49;16.31;76.89
68609;SHT31;55581;46.718;7.690;2022-07-06T02:43:14;16.28;76.90
68609;SHT31;55581;46.718;7.690;2022-07-06T02:45:40;16.29;76.93
68609;SHT31;55581;46.718;7.690;2022-07-06T02:48:07;16.34;76.90
68609;SHT31;55581;46.718;7.690;2022-07-06T02:50:33;16.21;77.51
68609;SHT31;55581;46.718;7.690;2022-07-06T02:52:59;16.10;77.71
68609;SHT31;55581;46.718;7.690;2022-07-06T02:55:26;15.99;77.65
68609;SHT31;55581;46.718;7.690;2022-07-06T02:57:53;16.03;77.65
68609;SHT31;55581;46.718;7.690;2022-07-06T03:00:19;16.00;77.05
68609;SHT31;55581;46.718;7.690;2022-07-06T03:02:44;15.96;77.67
68609;SHT31;55581;46.718;7.690;2022-07-06T03:05:11;15.93;78.17
68609;SHT31;55581;46.718;7.690;2022-07-06T03:07:37;15.87;76.60
68609;SHT31;55581;46.718;7.690;2022-07-06T03:10:02;15.80;76.92
68609;SHT31;55581;46.718;7.690;2022-07-06T03:12:28;15.80;76.53
68609;SHT31;55581;46.718;7.690;2022-07-06T03:14:55;15.80;77.32
68609;SHT31;55581;46.718;7.690;2022-07-06T03:17:22;15.80;77.68
68609;SHT31;55581;46.718;7.690;2022-07-06T03:19:48;15.78;76.73
68609;SHT31;55581;46.718;7.690;2022-07-06T03:22:13;15.72;77.59
68609;SHT31;55581;46.718;7.690;2022-07-06T03:24:39;15.72;77.67
68609;SHT31;55581;46.718;7.690;2022-07-06T03:27:04;15.69;78.57
68609;SHT31;55581;46.718;7.690;2022-07-06T03:29:30;15.66;76.97
68609;SHT31;55581;46.718;7.690;2022-07-06T03:31:55;15.63;76.88
68609;SHT31;55581;46.718;7.690;2022-07-06T03:34:21;15.51;76.55
68609;SHT31;55581;46.718;7.690;2022-07-06T03:36:46;15.49;76.47
68609;SHT31;55581;46.718;7.690;2022-07-06T03:39:12;15.44;76.37
68609;SHT31;55581;46.718;7.690;2022-07-06T03:41:37;15.41;77.23
68609;SHT31;55581;46.718;7.690;2022-07-06T03:44:03;15.41;77.58
68609;SHT31;55581;46.718;7.690;2022-07-06T03:46:29;15.41;77.28
68609;SHT31;55581;46.718;7.690;2022-07-06T03:48:54;15.39;76.08
68609;SHT31;55581;46.718;7.690;2022-07-06T03:51:21;15.31;76.76
68609;SHT31;55581;46.718;7.690;2022-07-06T03:53:47;15.35;77.03
68609;SHT31;55581;46.718;7.690;2022-07-06T03:56:12;15.30;77.25
68609;SHT31;55581;46.718;7.690;2022-07-06T03:58:53;15.32;77.34
68609;SHT31;55581;46.718;7.690;2022-07-06T04:01:18;15.35;76.64
68609;SHT31;55581;46.718;7.690;2022-07-06T04:03:45;15.44;75.41
68609;SHT31;55581;46.718;7.690;2022-07-06T04:06:13;15.42;76.78
68609;SHT31;55581;46.718;7.690;2022-07-06T04:08:39;15.35;77.16
68609;SHT31;55581;46.718;7.690;2022-07-06T04:11:05;15.31;77.15
68609;SHT31;55581;46.718;7.690;2022-07-06T04:13:32;15.35;76.08
68609;SHT31;55581;46.718;7.690;2022-07-06T04:15:57;15.34;77.05
68609;SHT31;55581;46.718;7.690;2022-07-06T04:18:23;15.34;77.74
68609;SHT31;55581;46.718;7.690;2022-07-06T04:20:48;15.31;78.07
68609;SHT31;55581;46.718;7.690;2022-07-06T04:23:16;15.30;78.65
68609;SHT31;55581;46.718;7.690;2022-07-06T04:25:42;15.30;78.45
68609;SHT31;55581;46.718;7.690;2022-07-06T04:28:09;15.32;78.54
68609;SHT31;55581;46.718;7.690;2022-07-06T04:30:35;15.32;77.58
68609;SHT31;55581;46.718;7.690;2022-07-06T04:33:00;15.32;77.28
68609;SHT31;55581;46.718;7.690;2022-07-06T04:35:26;15.44;76.46
68609;SHT31;55581;46.718;7.690;2022-07-06T04:37:51;15.38;77.27
68609;SHT31;55581;46.718;7.690;2022-07-06T04:40:17;15.34;78.76
68609;SHT31;55581;46.718;7.690;2022-07-06T04:42:42;15.31;78.65
68609;SHT31;55581;46.718;7.690;2022-07-06T04:45:08;15.30;78.68
68609;SHT31;55581;46.718;7.690;2022-07-06T04:47:34;15.31;78.84
68609;SHT31;55581;46.718;7.690;2022-07-06T04:50:01;15.28;79.82
68609;SHT31;55581;46.718;7.690;2022-07-06T04:52:27;15.31;79.49
68609;SHT31;55581;46.718;7.690;2022-07-06T04:54:55;15.27;80.02
68609;SHT31;55581;46.718;7.690;2022-07-06T04:57:21;15.31;79.99
68609;SHT31;55581;46.718;7.690;2022-07-06T04:59:46;15.28;80.80
68609;SHT31;55581;46.718;7.690;2022-07-06T05:02:13;15.27;81.07
68609;SHT31;55581;46.718;7.690;2022-07-06T05:04:41;15.32;81.19
68609;SHT31;55581;46.718;7.690;2022-07-06T05:07:09;15.35;81.07
68609;SHT31;55581;46.718;7.690;2022-07-06T05:09:34;15.35;81.01
68609;SHT31;55581;46.718;7.690;2022-07-06T05:12:02;15.34;80.87
68609;SHT31;55581;46.718;7.690;2022-07-06T05:14:30;15.41;80.56
68609;SHT31;55581;46.718;7.690;2022-07-06T05:16:55;15.38;81.16
68609;SHT31;55581;46.718;7.690;2022-07-06T05:19:21;15.36;81.44
68609;SHT31;55581;46.718;7.690;2022-07-06T05:21:46;15.39;81.74
68609;SHT31;55581;46.718;7.690;2022-07-06T05:24:13;15.45;81.54
68609;SHT31;55581;46.718;7.690;2022-07-06T05:26:43;15.51;81.76
68609;SHT31;55581;46.718;7.690;2022-07-06T05:29:08;15.51;81.77
68609;SHT31;55581;46.718;7.690;2022-07-06T05:31:34;15.49;80.72
68609;SHT31;55581;46.718;7.690;2022-07-06T05:33:59;15.55;80.53
68609;SHT31;55581;46.718;7.690;2022-07-06T05:36:26;15.61;80.52
68609;SHT31;55581;46.718;7.690;2022-07-06T05:38:52;15.69;80.72
68609;SHT31;55581;46.718;7.690;2022-07-06T05:41:17;15.61;80.95
68609;SHT31;55581;46.718;7.690;2022-07-06T05:43:42;15.66;81.35
68609;SHT31;55581;46.718;7.690;2022-07-06T05:46:08;15.62;82.00
68609;SHT31;55581;46.718;7.690;2022-07-06T05:48:33;15.61;82.09
68609;SHT31;55581;46.718;7.690;2022-07-06T05:51:17;15.69;81.89
68609;SHT31;55581;46.718;7.690;2022-07-06T05:53:43;15.69;82.37
68609;SHT31;55581;46.718;7.690;2022-07-06T05:56:10;15.66;82.41
68609;SHT31;55581;46.718;7.690;2022-07-06T05:58:38;15.69;81.95
68609;SHT31;55581;46.718;7.690;2022-07-06T06:01:06;15.72;81.96
68609;SHT31;55581;46.718;7.690;2022-07-06T06:03:33;15.76;82.31
68609;SHT31;55581;46.718;7.690;2022-07-06T06:05:58;15.74;82.41
68609;SHT31;55581;46.718;7.690;2022-07-06T06:08:24;15.82;81.82
68609;SHT31;55581;46.718;7.690;2022-07-06T06:10:49;15.78;81.95
68609;SHT31;55581;46.718;7.690;2022-07-06T06:13:15;15.89;81.50
68609;SHT31;55581;46.718;7.690;2022-07-06T06:15:40;15.91;81.52
68609;SHT31;55581;46.718;7.690;2022-07-06T06:18:06;16.13;80.79
68609;SHT31;55581;46.718;7.690;2022-07-06T06:20:31;16.29;80.76
68609;SHT31;55581;46.718;7.690;2022-07-06T06:22:58;16.56;80.24
68609;SHT31;55581;46.718;7.690;2022-07-06T06:27:54;16.76;79.19
68609;SHT31;55581;46.718;7.690;2022-07-06T06:30:20;16.93;78.61
68609;SHT31;55581;46.718;7.690;2022-07-06T06:32:45;16.92;78.31
68609;SHT31;55581;46.718;7.690;2022-07-06T06:35:11;17.04;78.24
68609;SHT31;55581;46.718;7.690;2022-07-06T06:37:37;17.31;77.59
68609;SHT31;55581;46.718;7.690;2022-07-06T06:40:05;17.58;76.91
68609;SHT31;55581;46.718;7.690;2022-07-06T06:42:31;17.89;75.40
68609;SHT31;55581;46.718;7.690;2022-07-06T06:44:57;18.16;74.28
68609;SHT31;55581;46.718;7.690;2022-07-06T06:47:22;18.33;73.99
68609;SHT31;55581;46.718;7.690;2022-07-06T06:49:48;18.45;73.95
68609;SHT31;55581;46.718;7.690;2022-07-06T06:52:13;18.57;74.05
68609;SHT31;55581;46.718;7.690;2022-07-06T06:54:39;18.75;72.72
68609;SHT31;55581;46.718;7.690;2022-07-06T06:57:07;18.93;71.92
68609;SHT31;55581;46.718;7.690;2022-07-06T06:59:32;19.00;72.12
68609;SHT31;55581;46.718;7.690;2022-07-06T07:02:00;19.09;71.82
68609;SHT31;55581;46.718;7.690;2022-07-06T07:04:25;19.10;71.61
68609;SHT31;55581;46.718;7.690;2022-07-06T07:06:51;19.19;71.67
68609;SHT31;55581;46.718;7.690;2022-07-06T07:09:16;19.27;71.52
68609;SHT31;55581;46.718;7.690;2022-07-06T07:11:42;19.31;70.68
68609;SHT31;55581;46.718;7.690;2022-07-06T07:14:07;19.40;70.03
68609;SHT31;55581;46.718;7.690;2022-07-06T07:16:34;19.35;69.67
68609;SHT31;55581;46.718;7.690;2022-07-06T07:19:03;19.48;68.76
68609;SHT31;55581;46.718;7.690;2022-07-06T07:21:28;19.68;67.58
68609;SHT31;55581;46.718;7.690;2022-07-06T07:23:54;19.78;66.86
68609;SHT31;55581;46.718;7.690;2022-07-06T07:26:22;19.89;68.18
68609;SHT31;55581;46.718;7.690;2022-07-06T07:28:47;20.08;67.91
68609;SHT31;55581;46.718;7.690;2022-07-06T07:31:13;20.41;67.54
68609;SHT31;55581;46.718;7.690;2022-07-06T07:33:41;20.57;67.28
68609;SHT31;55581;46.718;7.690;2022-07-06T07:36:07;20.61;65.16
68609;SHT31;55581;46.718;7.690;2022-07-06T07:38:33;20.44;59.98
68609;SHT31;55581;46.718;7.690;2022-07-06T07:40:58;20.65;59.79
68609;SHT31;55581;46.718;7.690;2022-07-06T07:43:25;20.81;59.86
68609;SHT31;55581;46.718;7.690;2022-07-06T07:45:51;21.02;61.68
68609;SHT31;55581;46.718;7.690;2022-07-06T07:48:18;21.26;60.73
68609;SHT31;55581;46.718;7.690;2022-07-06T07:50:43;21.10;60.35
68609;SHT31;55581;46.718;7.690;2022-07-06T07:53:09;20.98;57.57
68609;SHT31;55581;46.718;7.690;2022-07-06T07:55:34;21.43;61.04
68609;SHT31;55581;46.718;7.690;2022-07-06T07:58:02;21.54;59.65
68609;SHT31;55581;46.718;7.690;2022-07-06T08:00:31;21.64;57.50
68609;SHT31;55581;46.718;7.690;2022-07-06T08:02:56;21.68;56.86
68609;SHT31;55581;46.718;7.690;2022-07-06T08:05:22;21.87;57.75
68609;SHT31;55581;46.718;7.690;2022-07-06T08:07:48;21.85;56.96
68609;SHT31;55581;46.718;7.690;2022-07-06T08:10:13;21.97;57.13
68609;SHT31;55581;46.718;7.690;2022-07-06T08:12:39;21.99;55.95
68609;SHT31;55581;46.718;7.690;2022-07-06T08:15:06;22.18;55.12
68609;SHT31;55581;46.718;7.690;2022-07-06T08:17:32;22.19;56.69
68609;SHT31;55581;46.718;7.690;2022-07-06T08:19:57;22.33;54.87
68609;SHT31;55581;46.718;7.690;2022-07-06T08:22:23;22.35;54.64
68609;SHT31;55581;46.718;7.690;2022-07-06T08:24:50;22.20;54.53
68609;SHT31;55581;46.718;7.690;2022-07-06T08:27:16;22.28;56.39
68609;SHT31;55581;46.718;7.690;2022-07-06T08:29:41;22.12;55.79
68609;SHT31;55581;46.718;7.690;2022-07-06T08:32:07;22.52;56.47
68609;SHT31;55581;46.718;7.690;2022-07-06T08:34:32;22.29;55.76
68609;SHT31;55581;46.718;7.690;2022-07-06T08:36:58;22.29;56.74
68609;SHT31;55581;46.718;7.690;2022-07-06T08:39:23;22.16;56.18
68609;SHT31;55581;46.718;7.690;2022-07-06T08:41:50;22.35;56.34
68609;SHT31;55581;46.718;7.690;2022-07-06T08:44:17;22.56;56.83
68609;SHT31;55581;46.718;7.690;2022-07-06T08:46:44;22.59;56.09
68609;SHT31;55581;46.718;7.690;2022-07-06T08:49:15;22.92;56.32
68609;SHT31;55581;46.718;7.690;2022-07-06T08:51:41;23.08;55.74
68609;SHT31;55581;46.718;7.690;2022-07-06T08:54:07;23.16;56.27
68609;SHT31;55581;46.718;7.690;2022-07-06T08:56:33;23.11;56.43
68609;SHT31;55581;46.718;7.690;2022-07-06T08:58:59;23.22;55.23
68609;SHT31;55581;46.718;7.690;2022-07-06T09:01:27;23.15;53.73
68609;SHT31;55581;46.718;7.690;2022-07-06T09:03:54;23.41;54.90
68609;SHT31;55581;46.718;7.690;2022-07-06T09:06:24;23.47;55.94
68609;SHT31;55581;46.718;7.690;2022-07-06T09:08:51;23.55;54.64
68609;SHT31;55581;46.718;7.690;2022-07-06T09:11:21;23.64;55.99
68609;SHT31;55581;46.718;7.690;2022-07-06T09:13:50;23.80;54.85
68609;SHT31;55581;46.718;7.690;2022-07-06T09:16:16;23.81;54.71
68609;SHT31;55581;46.718;7.690;2022-07-06T09:18:46;23.97;54.56
68609;SHT31;55581;46.718;7.690;2022-07-06T09:21:22;24.12;52.52
68609;SHT31;55581;46.718;7.690;2022-07-06T09:23:53;24.26;52.70
68609;SHT31;55581;46.718;7.690;2022-07-06T09:26:21;24.21;54.78
68609;SHT31;55581;46.718;7.690;2022-07-06T09:28:51;24.52;51.99
68609;SHT31;55581;46.718;7.690;2022-07-06T09:31:18;24.43;53.31
68609;SHT31;55581;46.718;7.690;2022-07-06T09:34:01;24.56;53.74
68609;SHT31;55581;46.718;7.690;2022-07-06T09:41:50;24.95;52.03
68609;SHT31;55581;46.718;7.690;2022-07-06T09:44:30;25.37;51.79
68609;SHT31;55581;46.718;7.690;2022-07-06T09:46:58;25.42;52.64
68609;SHT31;55581;46.718;7.690;2022-07-06T09:49:24;25.43;50.44
68609;SHT31;55581;46.718;7.690;2022-07-06T09:51:55;25.42;50.13
68609;SHT31;55581;46.718;7.690;2022-07-06T09:54:20;25.48;50.32
68609;SHT31;55581;46.718;7.690;2022-07-06T09:56:47;25.27;50.71
68609;SHT31;55581;46.718;7.690;2022-07-06T09:59:17;25.22;51.23
68609;SHT31;55581;46.718;7.690;2022-07-06T10:01:43;25.15;50.39
68609;SHT31;55581;46.718;7.690;2022-07-06T10:04:11;25.32;51.59
68609;SHT31;55581;46.718;7.690;2022-07-06T10:06:43;25.32;49.07
68609;SHT31;55581;46.718;7.690;2022-07-06T10:09:13;25.56;47.82
68609;SHT31;55581;46.718;7.690;2022-07-06T10:14:30;25.35;48.79
68609;SHT31;55581;46.718;7.690;2022-07-06T10:16:59;25.53;49.03
68609;SHT31;55581;46.718;7.690;2022-07-06T10:19:26;25.58;47.17
68609;SHT31;55581;46.718;7.690;2022-07-06T10:21:52;25.62;48.27
68609;SHT31;55581;46.718;7.690;2022-07-06T10:24:21;25.35;47.83
68609;SHT31;55581;46.718;7.690;2022-07-06T10:26:48;25.56;47.66
68609;SHT31;55581;46.718;7.690;2022-07-06T10:29:14;25.58;47.64
68609;SHT31;55581;46.718;7.690;2022-07-06T10:31:42;25.42;48.28
68609;SHT31;55581;46.718;7.690;2022-07-06T10:34:17;25.50;46.93
68609;SHT31;55581;46.718;7.690;2022-07-06T10:36:48;25.53;47.61
68609;SHT31;55581;46.718;7.690;2022-07-06T10:39:31;25.49;48.12
68609;SHT31;55581;46.718;7.690;2022-07-06T10:42:48;25.61;49.18
68609;SHT31;55581;46.718;7.690;2022-07-06T10:50:37;26.31;46.10
68609;SHT31;55581;46.718;7.690;2022-07-06T10:53:09;26.16;46.15
68609;SHT31;55581;46.718;7.690;2022-07-06T10:55:38;26.13;46.33
68609;SHT31;55581;46.718;7.690;2022-07-06T10:58:05;26.11;44.96
68609;SHT31;55581;46.718;7.690;2022-07-06T11:00:54;26.03;45.80
68609;SHT31;55581;46.718;7.690;2022-07-06T11:04:04;26.35;45.90
68609;SHT31;55581;46.718;7.690;2022-07-06T11:06:32;26.35;45.85
68609;SHT31;55581;46.718;7.690;2022-07-06T11:09:08;26.21;46.65
68609;SHT31;55581;46.718;7.690;2022-07-06T11:11:41;26.49;45.76
68609;SHT31;55581;46.718;7.690;2022-07-06T11:14:16;26.49;45.75
68609;SHT31;55581;46.718;7.690;2022-07-06T11:19:17;26.66;45.66
68609;SHT31;55581;46.718;7.690;2022-07-06T11:21:50;26.69;45.34
68609;SHT31;55581;46.718;7.690;2022-07-06T11:24:31;26.68;44.64
68609;SHT31;55581;46.718;7.690;2022-07-06T11:26:58;26.99;42.98
68609;SHT31;55581;46.718;7.690;2022-07-06T11:29:26;26.65;44.50
68609;SHT31;55581;46.718;7.690;2022-07-06T11:31:58;26.48;44.90
68609;SHT31;55581;46.718;7.690;2022-07-06T11:36:56;26.59;43.31
68609;SHT31;55581;46.718;7.690;2022-07-06T11:39:47;26.85;42.76
68609;SHT31;55581;46.718;7.690;2022-07-06T11:42:16;27.14;42.07
68609;SHT31;55581;46.718;7.690;2022-07-06T11:44:44;26.76;43.29
68609;SHT31;55581;46.718;7.690;2022-07-06T11:47:10;26.34;44.10
68609;SHT31;55581;46.718;7.690;2022-07-06T11:49:41;26.51;46.16
68609;SHT31;55581;46.718;7.690;2022-07-06T11:52:08;26.58;45.24
68609;SHT31;55581;46.718;7.690;2022-07-06T11:54:34;26.87;43.71
68609;SHT31;55581;46.718;7.690;2022-07-06T11:57:00;26.87;44.46
68609;SHT31;55581;46.718;7.690;2022-07-06T11:59:31;27.04;45.55
68609;SHT31;55581;46.718;7.690;2022-07-06T12:02:05;26.66;44.68
68609;SHT31;55581;46.718;7.690;2022-07-06T12:04:33;26.83;44.39
68609;SHT31;55581;46.718;7.690;2022-07-06T12:07:02;26.92;42.95
68609;SHT31;55581;46.718;7.690;2022-07-06T12:09:34;26.65;42.63
68609;SHT31;55581;46.718;7.690;2022-07-06T12:12:00;26.66;44.27
68609;SHT31;55581;46.718;7.690;2022-07-06T12:14:33;26.89;42.85
68609;SHT31;55581;46.718;7.690;2022-07-06T12:17:17;27.27;41.32
68609;SHT31;55581;46.718;7.690;2022-07-06T12:19:42;27.27;41.96
68609;SHT31;55581;46.718;7.690;2022-07-06T12:22:08;27.48;40.82
68609;SHT31;55581;46.718;7.690;2022-07-06T12:24:36;26.93;45.89
68609;SHT31;55581;46.718;7.690;2022-07-06T12:27:13;27.27;42.92
68609;SHT31;55581;46.718;7.690;2022-07-06T12:29:39;27.15;40.73
68609;SHT31;55581;46.718;7.690;2022-07-06T12:32:05;27.26;43.02
68609;SHT31;55581;46.718;7.690;2022-07-06T12:34:31;27.30;41.07
68609;SHT31;55581;46.718;7.690;2022-07-06T12:37:05;27.69;39.92
68609;SHT31;55581;46.718;7.690;2022-07-06T12:39:31;27.55;40.83
68609;SHT31;55581;46.718;7.690;2022-07-06T12:42:04;27.18;42.52
68609;SHT31;55581;46.718;7.690;2022-07-06T12:44:32;27.24;43.41
68609;SHT31;55581;46.718;7.690;2022-07-06T12:49:31;27.11;42.91
68609;SHT31;55581;46.718;7.690;2022-07-06T12:54:35;27.51;40.46
68609;SHT31;55581;46.718;7.690;2022-07-06T12:57:22;27.35;41.40
68609;SHT31;55581;46.718;7.690;2022-07-06T12:59:56;27.68;40.60
68609;SHT31;55581;46.718;7.690;2022-07-06T13:02:29;27.75;40.55
68609;SHT31;55581;46.718;7.690;2022-07-06T13:04:56;27.68;39.18
68609;SHT31;55581;46.718;7.690;2022-07-06T13:07:22;27.95;39.80
68609;SHT31;55581;46.718;7.690;2022-07-06T13:09:48;27.84;42.93
68609;SHT31;55581;46.718;7.690;2022-07-06T13:12:14;27.20;39.57
68609;SHT31;55581;46.718;7.690;2022-07-06T13:14:40;27.51;38.96
68609;SHT31;55581;46.718;7.690;2022-07-06T13:17:05;27.42;40.85
68609;SHT31;55581;46.718;7.690;2022-07-06T13:19:31;27.35;40.67
68609;SHT31;55581;46.718;7.690;2022-07-06T13:21:56;27.17;41.73
68609;SHT31;55581;46.718;7.690;2022-07-06T13:24:23;27.31;43.31
68609;SHT31;55581;46.718;7.690;2022-07-06T13:26:48;27.59;40.27
68609;SHT31;55581;46.718;7.690;2022-07-06T13:29:19;27.59;40.10
68609;SHT31;55581;46.718;7.690;2022-07-06T13:31:44;27.82;38.55
68609;SHT31;55581;46.718;7.690;2022-07-06T13:34:09;27.33;40.73
68609;SHT31;55581;46.718;7.690;2022-07-06T13:36:35;27.07;40.22
68609;SHT31;55581;46.718;7.690;2022-07-06T13:39:04;27.13;40.28
68609;SHT31;55581;46.718;7.690;2022-07-06T13:41:32;27.34;40.22
68609;SHT31;55581;46.718;7.690;2022-07-06T13:43:58;27.10;38.95
68609;SHT31;55581;46.718;7.690;2022-07-06T13:46:26;27.21;40.68
68609;SHT31;55581;46.718;7.690;2022-07-06T13:48:52;27.48;41.47
68609;SHT31;55581;46.718;7.690;2022-07-06T13:51:17;27.13;40.47
68609;SHT31;55581;46.718;7.690;2022-07-06T13:53:46;27.03;40.20
68609;SHT31;55581;46.718;7.690;2022-07-06T13:56:12;27.30;39.58
68609;SHT31;55581;46.718;7.690;2022-07-06T13:58:38;27.18;39.66
68609;SHT31;55581;46.718;7.690;2022-07-06T14:01:05;27.04;39.65
68609;SHT31;55581;46.718;7.690;2022-07-06T14:03:31;27.42;38.99
68609;SHT31;55581;46.718;7.690;2022-07-06T14:06:01;27.40;40.61
68609;SHT31;55581;46.718;7.690;2022-07-06T14:08:31;27.37;40.21
68609;SHT31;55581;46.718;7.690;2022-07-06T14:10:57;27.51;41.97
68609;SHT31;55581;46.718;7.690;2022-07-06T14:13:23;27.69;40.97
68609;SHT31;55581;46.718;7.690;2022-07-06T14:15:49;28.06;40.38
68609;SHT31;55581;46.718;7.690;2022-07-06T14:18:17;27.70;41.30
68609;SHT31;55581;46.718;7.690;2022-07-06T14:20:45;27.27;40.95
68609;SHT31;55581;46.718;7.690;2022-07-06T14:23:11;27.26;41.23
68609;SHT31;55581;46.718;7.690;2022-07-06T14:25:40;27.58;40.20
68609;SHT31;55581;46.718;7.690;2022-07-06T14:28:05;27.51;39.20
68609;SHT31;55581;46.718;7.690;2022-07-06T14:30:32;27.57;40.39
68609;SHT31;55581;46.718;7.690;2022-07-06T14:33:00;27.59;39.34
68609;SHT31;55581;46.718;7.690;2022-07-06T14:35:26;28.05;39.27
68609;SHT31;55581;46.718;7.690;2022-07-06T14:37:52;28.12;39.27
68609;SHT31;55581;46.718;7.690;2022-07-06T14:40:20;28.24;40.53
68609;SHT31;55581;46.718;7.690;2022-07-06T14:42:47;28.03;38.46
68609;SHT31;55581;46.718;7.690;2022-07-06T14:45:15;28.21;39.34
68609;SHT31;55581;46.718;7.690;2022-07-06T14:47:41;28.40;40.81
68609;SHT31;55581;46.718;7.690;2022-07-06T14:50:08;28.23;39.36
68609;SHT31;55581;46.718;7.690;2022-07-06T14:52:43;27.85;40.02
68609;SHT31;55581;46.718;7.690;2022-07-06T14:55:13;27.27;41.00
68609;SHT31;55581;46.718;7.690;2022-07-06T14:57:39;26.80;41.60
68609;SHT31;55581;46.718;7.690;2022-07-06T15:00:05;26.83;41.57
68609;SHT31;55581;46.718;7.690;2022-07-06T15:02:34;26.89;41.59
68609;SHT31;55581;46.718;7.690;2022-07-06T15:05:00;27.07;42.75
68609;SHT31;55581;46.718;7.690;2022-07-06T15:07:25;27.37;41.19
68609;SHT31;55581;46.718;7.690;2022-07-06T15:09:50;27.38;42.20
68609;SHT31;55581;46.718;7.690;2022-07-06T15:12:16;27.58;40.95
68609;SHT31;55581;46.718;7.690;2022-07-06T15:14:41;27.54;43.18
68609;SHT31;55581;46.718;7.690;2022-07-06T15:17:07;27.68;39.80
68609;SHT31;55581;46.718;7.690;2022-07-06T15:19:32;28.03;40.10
68609;SHT31;55581;46.718;7.690;2022-07-06T15:22:00;27.85;40.81
68609;SHT31;55581;46.718;7.690;2022-07-06T15:24:26;27.97;43.47
68609;SHT31;55581;46.718;7.690;2022-07-06T15:26:51;27.51;39.70
68609;SHT31;55581;46.718;7.690;2022-07-06T15:29:17;27.49;42.13
68609;SHT31;55581;46.718;7.690;2022-07-06T15:31:43;27.57;42.75
68609;SHT31;55581;46.718;7.690;2022-07-06T15:34:08;27.20;38.94
68609;SHT31;55581;46.718;7.690;2022-07-06T15:36:35;27.21;42.40
68609;SHT31;55581;46.718;7.690;2022-07-06T15:39:00;27.10;42.64
68609;SHT31;55581;46.718;7.690;2022-07-06T15:41:27;27.20;42.80
68609;SHT31;55581;46.718;7.690;2022-07-06T15:43:56;27.07;41.51
68609;SHT31;55581;46.718;7.690;2022-07-06T15:46:23;26.86;41.74
68609;SHT31;55581;46.718;7.690;2022-07-06T15:48:49;26.73;42.59
68609;SHT31;55581;46.718;7.690;2022-07-06T15:51:15;26.87;42.63
68609;SHT31;55581;46.718;7.690;2022-07-06T15:53:41;26.63;42.53
68609;SHT31;55581;46.718;7.690;2022-07-06T15:56:11;26.49;42.22
68609;SHT31;55581;46.718;7.690;2022-07-06T15:58:37;26.63;41.29